Weather

*Note: Some stations are located near irrigated fields and may also report irrigation

Forrest Carberry Wawanesa Glenboro Glenora Treherne Holland Gladstone Portage East High Bluff Oakland Elm Creek Carman Winkler Kuhl Farm Morris St.Adolphe Steinbach Selkirk Shilo Rivers Somerset Reinland Altona Starbuck St.Pierre Winkler Kane Brunkild Austin Bagot Elie Kenton Neepawa St. Claude




Portage E - Historical Weather Data
Date Max Temp (°C) Min Temp (°C) Avg Temp (°C) Rain (mm) Avg RH (%) Solar Radiation (W/m2)
9/19/2020 25.2 2.4 13.9 0.0 72.0 17.0
9/18/2020 23.4 0.3 10.8 0.0 62.0 12.4
9/17/2020 14.3 -3.1 4.5 0.0 70.0 11.7
9/16/2020 12.3 0.1 7.8 0.5 73.0 14.5
9/15/2020 15.3 10.4 12.8 0.0 79.0 9.4
9/14/2020 16.2 1.2 9.5 0.0 75.0 9.6
9/13/2020 14.2 3.1 10.4 0.2 78.0 15.8
9/12/2020 19.8 8.9 14.0 0.0 70.0 17.2
9/11/2020 24.0 7.2 15.1 0.0 56.0 18.7
9/10/2020 24.4 7.6 15.3 0.0 53.0 19.2
9/9/2020 17.3 1.3 9.1 0.0 59.0 18.3
9/8/2020 11.3 1.7 6.1 0.0 79.0 13.1
9/7/2020 9.6 2.6 7.0 2.0 80.0 13.2
9/6/2020 19.9 9.4 15.0 3.9 75.0 15.0
9/5/2020 26.6 6.7 16.7 0.0 65.0 16.1
9/4/2020 19.6 8.6 13.6 0.0 65.0 20.0
9/3/2020 19.0 8.7 13.4 0.9 67.0 21.1
9/2/2020 19.4 10.4 13.7 8.1 78.0 10.5
9/1/2020 22.0 6.2 13.8 0.0 64.0 9.8
8/31/2020 16.6 7.1 12.0 0.0 74.0 16.7
8/30/2020 18.6 10.7 14.2 8.6 92.0 4.1
8/29/2020 24.6 11.6 17.4 0.0 68.0 21.4
8/28/2020 22.8 14.7 18.2 6.4 75.0 18.3
8/27/2020 26.3 10.9 19.3 0.0 74.0 17.0
8/26/2020 22.8 14.0 19.3 0.0 81.0 17.1
8/25/2020 28.7 12.1 20.1 0.0 75.0 12.4
8/24/2020 30.7 11.3 20.7 0.0 67.0 22.5
8/23/2020 24.3 13.3 18.6 0.0 87.0 11.1
8/22/2020 23.9 16.2 20.5 0.0 91.0 12.1
8/21/2020 30.5 15.7 23.4 0.0 83.0 15.8
8/20/2020 30.8 16.2 23.1 0.3 79.0 22.0
8/19/2020 31.4 16.3 24.4 2.7 75.0 22.4
8/18/2020 34.0 13.0 22.8 0.0 74.0 23.2
8/17/2020 25.9 9.0 17.8 0.0 74.0 24.2
8/16/2020 23.0 12.6 18.0 0.0 67.0 24.1
8/15/2020 25.1 12.4 18.6 0.0 67.0 21.7
8/14/2020 19.1 14.0 16.9 3.0 97.0 5.1
8/13/2020 24.6 16.6 19.1 40.3 96.0 7.8
8/12/2020 31.3 10.0 21.2 0.0 67.0 23.2
8/11/2020 27.7 13.1 20.5 0.0 51.0 25.0
8/10/2020 27.4 13.7 20.3 0.0 45.0 25.6
8/9/2020 25.5 13.2 20.0 1.1 63.0 17.0
8/8/2020 28.5 15.6 22.0 0.0 58.0 25.1
8/7/2020 25.5 14.3 20.7 0.0 94.0 15.3
8/6/2020 29.6 16.5 23.0 0.0 72.0 24.0
8/5/2020 28.3 11.5 20.6 0.0 76.0 25.2
8/4/2020 26.2 10.3 18.7 0.0 69.0 22.8
8/3/2020 26.2 9.1 18.5 0.0 69.0 26.6
8/2/2020 24.8 11.5 18.7 0.0 69.0 26.4
8/1/2020 24.9 13.1 19.5 0.0 71.0 25.9
7/31/2020 26.3 16.6 21.8 0.0 78.0 22.1
7/30/2020 29.2 14.0 22.0 0.0 79.0 25.3
7/29/2020 27.6 10.6 20.1 0.0 76.0 26.3
7/28/2020 25.6 15.0 20.7 0.0 68.0 27.4
7/27/2020 26.7 15.3 20.8 0.0 66.0 23.6
7/26/2020 26.1 14.1 20.9 0.0 61.0 26.9
7/25/2020 32.3 20.5 25.7 6.7 78.0 22.8
7/24/2020 32.1 20.1 25.6 0.1 84.0 23.0
7/23/2020 24.8 13.9 19.0 5.4 94.0 11.5
7/22/2020 25.9 10.7 19.4 0.0 73.0 26.9
7/21/2020 25.0 13.4 19.2 0.0 79.0 20.8
7/20/2020 23.6 8.7 17.2 0.0 78.0 19.1
7/19/2020 23.6 12.8 18.2 0.0 73.0 24.6
7/18/2020 22.7 14.8 19.7 0.3 85.0 10.8
7/17/2020 27.7 13.9 19.7 2.8 84.0 14.1
7/16/2020 27.1 16.8 21.7 0.1 61.0 27.5
7/15/2020 26.7 14.9 20.6 0.0 57.0 22.7
7/14/2020 24.5 13.9 18.8 0.7 63.0 26.9
7/13/2020 25.1 17.1 20.7 7.4 90.0 10.6
7/12/2020 29.6 14.2 22.8 0.0 74.0 24.9
7/11/2020 26.6 14.6 21.3 0.0 71.0 25.1
7/10/2020 25.8 15.5 20.9 0.0 70.0 25.6
7/9/2020 25.8 15.7 20.4 0.0 68.0 20.8
7/8/2020 27.9 17.5 22.1 2.7 72.0 28.4
7/7/2020 30.1 16.2 23.1 0.0 64.0 28.7
7/6/2020 27.2 17.6 22.5 0.0 69.0 28.4
7/5/2020 28.2 19.5 23.5 7.4 87.0 19.6
7/4/2020 27.9 19.1 23.0 3.5 86.0 18.4
7/3/2020 32.4 17.6 26.1 1.7 63.0 26.6
7/2/2020 32.7 16.4 24.9 0.0 81.0 26.4
7/1/2020 27.5 19.0 22.6 8.3 82.0 22.9
6/30/2020 31.9 19.4 25.3 12.9 80.0 21.1
6/29/2020 32.1 19.8 25.9 0.0 69.0 27.2
6/28/2020 33.6 20.9 26.0 0.0 65.0 22.6
6/27/2020 34.8 15.6 26.3 0.0 50.0 28.7
6/26/2020 30.6 15.3 22.7 0.0 65.0 29.5
6/25/2020 28.6 17.8 22.1 1.6 67.0 15.6
6/24/2020 28.4 9.9 20.6 0.0 61.0 29.5
6/23/2020 25.8 11.3 18.9 0.0 65.0 25.1
6/22/2020 20.6 12.6 16.2 0.0 82.0 18.2
6/21/2020 18.6 10.4 13.5 0.8 89.0 11.4
6/20/2020 22.3 10.7 16.5 1.1 72.0 18.6
6/19/2020 22.0 8.2 14.3 0.0 63.0 22.9
6/18/2020 23.1 8.8 13.2 0.0 96.0 7.3
6/17/2020 30.4 19.5 26.5 2.0 58.0 22.4
6/16/2020 30.8 9.7 22.8 0.0 53.0 18.8
6/15/2020 29.1 14.6 23.4 0.0 50.0 23.8
6/14/2020 28.3 14.3 21.1 0.0 55.0 23.1
6/13/2020 24.8 6.9 17.1 0.0 50.0 29.9
6/12/2020 19.6 6.7 13.7 0.0 55.0 29.8
6/11/2020 18.6 8.3 13.4 0.0 76.0 27.6
6/10/2020 20.8 11.0 15.0 1.0 70.0 25.1
6/9/2020 17.2 13.8 15.2 0.0 85.0 7.0
6/8/2020 25.9 15.2 20.1 0.0 91.0 18.1
6/7/2020 24.9 12.1 17.5 13.0 93.0 17.5
6/6/2020 15.9 5.8 11.7 7.2 79.0 8.3
6/5/2020 17.9 9.3 13.5 0.0 67.0 26.3
6/4/2020 25.6 12.0 18.9 0.0 40.0 29.6
6/3/2020 30.8 7.9 20.7 0.0 50.0 25.9
6/2/2020 28.7 12.8 20.6 0.0 45.0 21.6
6/1/2020 31.2 16.9 24.1 0.0 41.0 28.1
5/31/2020 26.2 10.1 19.4 0.0 35.0 29.1
5/30/2020 22.1 0.0 12.3 0.0 51.0 29.4
5/29/2020 13.0 6.4 9.9 0.0 74.0 15.7
5/28/2020 16.9 9.2 11.3 0.8 67.0 11.3
5/27/2020 23.6 14.5 18.9 0.0 46.0 28.9
5/26/2020 23.1 12.2 17.4 0.0 64.0 13.6
5/25/2020 19.8 10.7 15.2 0.0 70.0 23.3
5/24/2020 17.3 11.7 14.3 0.0 87.0 12.3
5/23/2020 26.3 11.9 18.4 19.5 80.0 16.8
5/22/2020 28.6 16.1 21.9 0.0 63.0 27.4
5/21/2020 25.2 14.2 18.7 0.0 72.0 12.2
5/20/2020 27.4 10.9 19.5 0.0 63.0 26.1
5/19/2020 26.9 11.8 19.8 0.0 42.0 25.4
5/18/2020 26.0 10.7 18.7 0.0 39.0 25.1
5/17/2020 25.3 3.8 16.6 0.0 47.0 27.7
5/16/2020 20.1 2.9 11.8 0.2 60.0 27.1
5/15/2020 11.0 1.2 5.7 0.0 76.0 27.2
5/14/2020 11.4 2.2 6.9 2.0 94.0 8.8
5/13/2020 7.4 0.3 5.3 0.3 80.0 2.9
5/12/2020 12.1 -5.3 4.3 0.0 46.0 28.4
5/11/2020 5.9 -6.2 0.6 0.0 50.0 28.8
5/10/2020 5.2 -2.3 1.8 0.0 54.0 27.6
5/9/2020 7.7 1.1 3.8 0.0 55.0 25.1
5/8/2020 7.7 -4.8 2.2 0.0 61.0 25.7
5/7/2020 6.7 -2.7 1.9 0.0 54.0 28.2
5/6/2020 10.9 0.8 6.2 0.0 56.0 25.0
5/5/2020 14.2 3.8 9.0 0.0 67.0 21.2
5/4/2020 11.4 -1.1 5.4 0.0 73.0 15.8
5/3/2020 9.6 -1.1 2.8 0.0 75.0 22.6
5/2/2020 11.6 0.9 6.4 0.0 72.0 19.7
5/1/2020 16.6 10.6 13.4 2.5 75.0 6.0